createdAt,value
2023-05-02T00:11:35.756Z,9.06
2023-05-02T00:25:43.209Z,8.74
2023-05-02T00:39:49.712Z,8.47
2023-05-02T00:53:58.675Z,8.25
2023-05-02T01:08:01.395Z,8.04
2023-05-02T01:22:09.836Z,7.93
2023-05-02T01:36:10.681Z,7.9
2023-05-02T01:50:17.577Z,7.87
2023-05-02T02:04:22.188Z,7.84
2023-05-02T02:32:34.880Z,7.69
2023-05-02T02:46:35.317Z,7.67
2023-05-02T03:14:46.551Z,7.63
2023-05-02T03:43:08.082Z,7.53
2023-05-02T03:57:33.323Z,7.52
2023-05-02T04:11:39.585Z,7.59
2023-05-02T04:39:55.689Z,7.8
2023-05-02T04:54:32.503Z,8.45
2023-05-02T05:08:42.424Z,9.19
2023-05-02T05:22:56.282Z,9.86
2023-05-02T05:37:09.441Z,10.12
2023-05-02T05:38:15.457Z,10.19
2023-05-02T05:51:21.160Z,10.26
2023-05-02T06:05:34.879Z,10.66
2023-05-02T06:06:59.895Z,10.94
2023-05-02T06:08:03.703Z,10.99
2023-05-02T06:19:51.324Z,11.64
2023-05-02T06:20:38.413Z,11.68
2023-05-02T06:21:42.282Z,11.72
2023-05-02T06:22:46.142Z,11.76
2023-05-02T06:23:48.482Z,11.81
2023-05-02T06:24:50.883Z,11.85
2023-05-02T06:25:54.925Z,11.89
2023-05-02T06:26:58.821Z,11.94
2023-05-02T06:28:01.081Z,11.99
2023-05-02T06:29:05.095Z,12.03
2023-05-02T06:30:09.010Z,12.09
2023-05-02T06:39:41.427Z,12.20
2023-05-02T06:40:43.723Z,12.26
2023-05-02T06:41:47.745Z,12.32
2023-05-02T06:42:51.783Z,12.38
2023-05-02T06:43:53.998Z,12.45
2023-05-02T06:44:56.410Z,12.53
2023-05-02T06:45:58.953Z,12.58
2023-05-02T06:47:01.293Z,12.62
2023-05-02T06:48:03.733Z,12.65
2023-05-02T06:49:07.841Z,12.70
2023-05-02T06:50:11.744Z,12.75
2023-05-02T06:51:14.014Z,12.82
2023-05-02T06:52:16.438Z,12.85
2023-05-02T06:53:20.410Z,12.89
2023-05-02T06:54:24.427Z,12.94
2023-05-02T06:55:28.266Z,12.98
2023-05-02T06:56:32.201Z,13.03
2023-05-02T06:57:36.089Z,13.08
2023-05-02T06:58:39.949Z,13.13
2023-05-02T06:59:43.887Z,13.17
2023-05-02T07:00:47.837Z,13.23
2023-05-02T07:01:51.731Z,13.26
2023-05-02T07:02:55.623Z,13.28
2023-05-02T07:03:57.918Z,13.32
2023-05-02T07:05:01.967Z,13.34
2023-05-02T07:06:04.317Z,13.37
2023-05-02T07:07:08.318Z,13.39
2023-05-02T07:08:12.288Z,13.44
2023-05-02T07:09:16.196Z,13.50
2023-05-02T07:10:18.454Z,13.55
2023-05-02T07:11:22.404Z,13.59
2023-05-02T07:12:24.748Z,13.63
2023-05-02T07:13:27.161Z,13.60
2023-05-02T07:14:31.133Z,13.62
2023-05-02T07:24:03.616Z,13.48
2023-05-02T07:25:05.886Z,13.51
2023-05-02T07:26:09.996Z,13.54
2023-05-02T07:27:12.323Z,13.61
2023-05-02T07:28:16.329Z,13.60
2023-05-02T07:29:18.638Z,13.66
2023-05-02T07:30:22.657Z,13.69
2023-05-02T07:31:24.965Z,13.75
2023-05-02T07:32:29.135Z,13.77
2023-05-02T07:33:32.928Z,13.81
2023-05-02T07:34:35.197Z,13.84
2023-05-02T07:35:37.634Z,13.88
2023-05-02T07:37:42.564Z,13.90
2023-05-02T07:38:44.982Z,13.94
2023-05-02T07:40:51.538Z,13.91
2023-05-02T07:41:55.421Z,13.97
2023-05-02T07:42:59.323Z,14.00
2023-05-02T07:44:01.653Z,14.01
2023-05-02T07:46:09.739Z,14.07
2023-05-02T07:47:11.964Z,14.11
2023-05-02T07:48:14.400Z,14.13
2023-05-02T07:49:16.841Z,14.19
2023-05-02T07:50:19.217Z,14.18
2023-05-02T07:51:21.726Z,14.21
2023-05-02T07:52:25.782Z,14.22
2023-05-02T07:53:29.667Z,14.26
2023-05-02T07:54:31.987Z,14.30
2023-05-02T07:55:36.028Z,14.29
2023-05-02T07:56:39.969Z,14.28
2023-05-02T07:57:43.849Z,14.31
2023-05-02T07:58:46.110Z,14.33
2023-05-02T07:59:50.153Z,14.32
2023-05-02T08:00:52.429Z,14.30
2023-05-02T08:01:56.494Z,14.28
2023-05-02T08:02:58.860Z,14.25
2023-05-02T08:05:03.638Z,14.21
2023-05-02T08:06:07.729Z,14.16
2023-05-02T08:07:11.529Z,14.17
2023-05-02T08:08:15.446Z,14.11
2023-05-02T08:09:17.960Z,14.09
2023-05-02T08:10:20.426Z,14.10
2023-05-02T08:11:24.414Z,14.06
2023-05-02T08:12:26.752Z,14.05
2023-05-02T08:13:30.787Z,14.02
2023-05-02T08:14:34.711Z,13.99
2023-05-02T08:15:38.642Z,13.98
2023-05-02T08:16:40.999Z,13.95
2023-05-02T08:17:43.471Z,13.93
2023-05-02T08:18:45.746Z,13.90
2023-05-02T08:19:49.884Z,13.87
2023-05-02T08:20:52.115Z,13.86
2023-05-02T08:23:00.019Z,13.83
2023-05-02T08:24:02.603Z,13.82
2023-05-02T08:25:04.851Z,13.77
2023-05-02T08:26:07.358Z,13.78
2023-05-02T08:27:09.740Z,13.75
2023-05-02T08:28:13.783Z,13.74
2023-05-02T08:29:16.120Z,13.72
2023-05-02T08:30:20.212Z,13.69
2023-05-02T08:31:24.044Z,13.65
2023-05-02T08:32:27.940Z,13.62
2023-05-02T08:33:30.243Z,13.63
2023-05-02T08:34:34.236Z,13.60
2023-05-02T08:37:44.416Z,13.59
2023-05-02T08:39:49.161Z,13.58
2023-05-02T08:41:55.708Z,13.56
2023-05-02T08:42:57.943Z,13.57
2023-05-02T08:44:01.965Z,13.52
2023-05-02T08:46:06.818Z,13.51
2023-05-02T08:47:09.193Z,13.49
2023-05-02T08:49:14.189Z,13.48
2023-05-02T08:50:16.587Z,13.49
2023-05-02T08:51:20.685Z,13.50
2023-05-02T08:53:25.609Z,13.51
2023-05-02T08:54:28.363Z,13.53
2023-05-02T08:55:31.340Z,13.55
2023-05-02T08:56:35.563Z,13.58
2023-05-02T08:57:37.874Z,13.61
2023-05-02T08:58:40.265Z,13.67
2023-05-02T08:59:42.705Z,13.69
2023-05-02T09:00:46.737Z,13.74
2023-05-02T09:01:49.115Z,13.79
2023-05-02T09:02:51.642Z,13.81
2023-05-02T09:04:56.958Z,13.78
2023-05-02T09:07:02.660Z,13.79
2023-05-02T09:08:06.769Z,13.77
2023-05-02T09:09:10.644Z,13.78
2023-05-02T09:11:15.383Z,13.81
2023-05-02T09:12:17.852Z,13.83
2023-05-02T09:13:21.852Z,13.84
2023-05-02T09:14:24.621Z,13.86
2023-05-02T09:15:28.727Z,13.90
2023-05-02T09:16:31.163Z,13.95
2023-05-02T09:17:33.543Z,13.98
2023-05-02T09:18:37.679Z,14.03
2023-05-02T09:19:39.987Z,14.14
2023-05-02T09:20:42.534Z,14.23
2023-05-02T09:21:46.546Z,14.29
2023-05-02T09:22:49.022Z,14.39
2023-05-02T09:23:51.278Z,14.47
2023-05-02T09:24:55.349Z,14.59
2023-05-02T09:25:59.258Z,14.71
2023-05-02T09:27:01.613Z,14.80
2023-05-02T09:28:04.115Z,14.86
2023-05-02T09:29:06.547Z,14.89
2023-05-02T09:30:08.991Z,14.96
2023-05-02T09:31:13.120Z,14.98
2023-05-02T09:32:15.500Z,15.01
2023-05-02T09:33:19.474Z,15.07
2023-05-02T09:34:23.389Z,15.14
2023-05-02T09:35:27.348Z,15.21
2023-05-02T09:36:29.763Z,15.29
2023-05-02T09:37:33.654Z,15.37
2023-05-02T09:38:37.619Z,15.41
2023-05-02T09:39:39.951Z,15.49
2023-05-02T09:40:44.014Z,15.55
2023-05-02T09:41:47.948Z,15.61
2023-05-02T09:42:50.216Z,15.66
2023-05-02T09:43:52.690Z,15.73
2023-05-02T09:44:55.183Z,15.76
2023-05-02T09:45:57.721Z,15.78
2023-05-02T09:47:00.360Z,15.82
2023-05-02T09:48:04.395Z,15.86
2023-05-02T09:49:06.724Z,15.89
2023-05-02T09:50:10.814Z,15.88
2023-05-02T09:51:14.755Z,15.90
2023-05-02T09:52:17.050Z,15.92
2023-05-02T09:53:19.483Z,15.94
2023-05-02T09:54:22.103Z,15.95
2023-05-02T09:55:26.007Z,15.97
2023-05-02T09:56:28.380Z,16.00
2023-05-02T09:57:30.780Z,16.02
2023-05-02T09:58:33.257Z,16.03
2023-05-02T09:59:35.719Z,16.06
2023-05-02T10:00:38.183Z,16.05
2023-05-02T10:01:42.389Z,16.04
2023-05-02T10:02:44.553Z,16.05
2023-05-02T10:03:48.643Z,16.06
2023-05-02T10:04:50.916Z,16.07
2023-05-02T10:05:55.170Z,16.08
2023-05-02T10:06:58.902Z,16.09
2023-05-02T10:08:01.133Z,16.08
2023-05-02T10:12:14.382Z,16.05
2023-05-02T10:13:16.898Z,16.08
2023-05-02T10:14:20.922Z,16.10
2023-05-02T10:15:24.837Z,16.11
2023-05-02T10:16:28.796Z,16.14
2023-05-02T10:17:32.688Z,16.16
2023-05-02T10:18:36.694Z,16.17
2023-05-02T10:19:38.911Z,16.13
2023-05-02T10:21:45.395Z,16.14
2023-05-02T10:22:47.770Z,16.13
2023-05-02T10:26:00.223Z,16.10
2023-05-02T10:27:02.027Z,16.12
2023-05-02T10:28:04.456Z,16.08
2023-05-02T10:29:08.495Z,16.06
2023-05-02T10:30:10.820Z,16.07
2023-05-02T10:31:14.869Z,16.10
2023-05-02T10:32:18.704Z,16.11
2023-05-02T10:33:21.089Z,16.15
2023-05-02T10:34:25.162Z,16.17
2023-05-02T10:35:29.083Z,16.21
2023-05-02T10:36:33.085Z,16.26
2023-05-02T10:37:35.405Z,16.30
2023-05-02T10:38:39.470Z,16.28
2023-05-02T10:39:41.776Z,16.30
2023-05-02T10:40:45.805Z,16.34
2023-05-02T10:41:48.141Z,16.37
2023-05-02T10:43:53.073Z,16.36
2023-05-02T10:45:59.656Z,16.37
2023-05-02T10:47:03.865Z,16.34
2023-05-02T10:48:06.104Z,16.30
2023-05-02T10:50:12.621Z,16.29
2023-05-02T10:51:14.915Z,16.35
2023-05-02T10:52:18.914Z,16.42
2023-05-02T10:53:21.291Z,16.45
2023-05-02T10:54:23.691Z,16.49
2023-05-02T11:03:55.971Z,16.24
2023-05-02T11:04:58.587Z,16.30
2023-05-02T11:06:00.972Z,16.39
2023-05-02T11:07:03.348Z,16.45
2023-05-02T11:08:05.798Z,16.49
2023-05-02T11:09:08.294Z,16.48
2023-05-02T11:10:10.710Z,16.49
2023-05-02T11:11:13.202Z,16.53
2023-05-02T11:12:15.645Z,16.61
2023-05-02T11:13:19.803Z,16.67
2023-05-02T11:14:23.705Z,16.77
2023-05-02T11:15:27.606Z,16.86
2023-05-02T11:16:31.621Z,16.95
2023-05-02T11:17:33.909Z,16.99
2023-05-02T11:18:36.297Z,17.09
2023-05-02T11:19:38.751Z,17.14
2023-05-02T11:20:42.767Z,17.09
2023-05-02T11:21:45.138Z,17.07
2023-05-02T11:22:47.556Z,17.06
2023-05-02T11:23:51.671Z,17.09
2023-05-02T11:24:54.013Z,17.15
2023-05-02T11:25:56.485Z,17.16
2023-05-02T11:28:02.816Z,17.20
2023-05-02T11:29:06.918Z,17.24
2023-05-02T11:31:14.679Z,17.20
2023-05-02T11:32:17.009Z,17.18
2023-05-02T11:33:19.434Z,17.09
2023-05-02T11:34:22.124Z,17.04
2023-05-02T11:35:24.581Z,16.96
2023-05-02T11:36:27.226Z,16.95
2023-05-02T11:37:29.917Z,16.91
2023-05-02T11:39:36.135Z,16.88
2023-05-02T11:41:41.081Z,16.89
2023-05-02T11:42:43.552Z,16.93
2023-05-02T11:43:47.573Z,17.07
2023-05-02T11:44:49.922Z,17.18
2023-05-02T11:45:53.979Z,17.30
2023-05-02T11:46:56.273Z,17.34
2023-05-02T11:47:58.756Z,17.37
2023-05-02T11:49:01.196Z,17.38
2023-05-02T11:50:03.669Z,17.48
2023-05-02T11:51:06.125Z,17.58
2023-05-02T11:52:08.620Z,17.59
2023-05-02T11:53:12.670Z,17.66
2023-05-02T11:54:14.965Z,17.72
2023-05-02T11:55:17.584Z,17.81
2023-05-02T11:56:19.989Z,17.88
2023-05-02T11:57:22.462Z,18.02
2023-05-02T11:58:24.933Z,18.14
2023-05-02T11:59:27.420Z,18.22
2023-05-02T12:00:31.559Z,18.33
2023-05-02T12:01:34.073Z,18.46
2023-05-02T12:02:36.452Z,18.60
2023-05-02T12:03:40.656Z,18.76
2023-05-02T12:04:42.861Z,18.94
2023-05-02T12:05:47.022Z,19.02
2023-05-02T12:06:49.337Z,19.00
2023-05-02T12:07:51.697Z,19.02
2023-05-02T12:08:55.842Z,18.96
2023-05-02T12:09:58.108Z,18.91
2023-05-02T12:11:02.268Z,18.85
2023-05-02T12:12:04.739Z,18.76
2023-05-02T12:13:08.376Z,18.67
2023-05-02T12:14:11.262Z,18.58
2023-05-02T12:15:15.225Z,18.49
2023-05-02T12:16:17.534Z,18.38
2023-05-02T12:17:20.019Z,18.27
2023-05-02T12:18:22.488Z,18.15
2023-05-02T12:19:26.534Z,17.93
2023-05-02T12:20:28.852Z,17.81
2023-05-02T12:21:31.494Z,17.67
2023-05-02T12:22:35.477Z,17.48
2023-05-02T12:23:37.954Z,17.40
2023-05-02T12:24:40.182Z,17.21
2023-05-02T12:25:44.280Z,17.10
2023-05-02T12:26:46.592Z,17.02
2023-05-02T12:27:49.050Z,16.90
2023-05-02T12:28:53.080Z,16.83
2023-05-02T12:29:55.423Z,16.78
2023-05-02T12:30:57.876Z,16.70
2023-05-02T12:32:00.584Z,16.65
2023-05-02T12:33:04.509Z,16.60
2023-05-02T12:34:06.815Z,16.56
2023-05-02T12:35:10.819Z,16.52
2023-05-02T12:36:13.152Z,16.49
2023-05-02T12:37:15.556Z,16.46
2023-05-02T12:38:18.244Z,16.43
2023-05-02T12:39:20.628Z,16.40
2023-05-02T12:40:24.694Z,16.37
2023-05-02T12:41:27.054Z,16.38
2023-05-02T12:42:29.443Z,16.36
2023-05-02T12:43:31.883Z,16.38
2023-05-02T12:44:34.351Z,16.43
2023-05-02T12:45:36.766Z,16.44
2023-05-02T12:46:39.288Z,16.51
2023-05-02T12:47:41.849Z,16.61
2023-05-02T12:48:45.006Z,16.81
2023-05-02T12:49:48.372Z,17.07
2023-05-02T12:50:52.314Z,17.36
2023-05-02T12:51:54.744Z,17.61
2023-05-02T12:52:57.183Z,17.72
2023-05-02T12:54:01.375Z,17.95
2023-05-02T12:55:03.846Z,18.16
2023-05-02T12:56:06.171Z,18.40
2023-05-02T12:57:08.692Z,18.42
2023-05-02T12:58:23.023Z,19.07
2023-05-02T12:59:15.199Z,19.31
2023-05-02T13:00:17.653Z,19.52
2023-05-02T13:01:20.242Z,19.66
2023-05-02T13:02:22.756Z,19.68
2023-05-02T13:05:30.260Z,19.56
2023-05-02T13:06:32.658Z,19.44
2023-05-02T13:07:34.952Z,19.39
2023-05-02T13:08:39.043Z,19.32
2023-05-02T13:09:41.488Z,19.26
2023-05-02T13:10:43.946Z,19.18
2023-05-02T13:11:46.351Z,19.15
2023-05-02T13:12:48.877Z,19.08
2023-05-02T13:13:51.350Z,18.95
2023-05-02T13:14:55.383Z,18.84
2023-05-02T13:15:57.671Z,18.77
2023-05-02T13:17:01.836Z,18.75
2023-05-02T13:18:04.215Z,18.68
2023-05-02T13:19:07.998Z,18.63
2023-05-02T13:20:12.015Z,18.54
2023-05-02T13:21:14.318Z,18.47
2023-05-02T13:22:16.790Z,18.48
2023-05-02T13:23:20.852Z,18.47
2023-05-02T13:24:23.190Z,18.45
2023-05-02T13:25:27.263Z,18.43
2023-05-02T13:26:31.873Z,18.45
2023-05-02T13:27:35.442Z,18.48
2023-05-02T13:28:37.782Z,18.49
2023-05-02T13:29:40.205Z,18.64
2023-05-02T13:30:42.776Z,18.71
2023-05-02T13:31:45.222Z,18.70
2023-05-02T13:32:49.380Z,18.77
2023-05-02T13:33:53.339Z,18.96
2023-05-02T13:34:55.731Z,19.06
2023-05-02T13:37:00.445Z,19.14
2023-05-02T13:38:02.963Z,19.13
2023-05-02T13:39:05.498Z,19.15
2023-05-02T13:40:09.438Z,19.12
2023-05-02T13:42:17.384Z,19.08
2023-05-02T13:43:21.255Z,19.04
2023-05-02T13:44:23.594Z,19.01
2023-05-02T13:45:26.039Z,18.96
2023-05-02T13:46:30.156Z,18.92
2023-05-02T13:47:35.069Z,18.88
2023-05-02T13:48:37.255Z,18.82
2023-05-02T13:49:39.577Z,18.80
2023-05-02T13:50:43.761Z,18.77
2023-05-02T13:51:46.086Z,18.81
2023-05-02T13:53:52.681Z,18.91
2023-05-02T13:54:56.652Z,18.88
2023-05-02T13:56:00.589Z,18.85
2023-05-02T13:57:02.848Z,18.82
2023-05-02T13:58:05.342Z,18.80
2023-05-02T13:59:10.895Z,18.77
2023-05-02T14:00:12.794Z,18.75
2023-05-02T14:01:16.900Z,18.72
2023-05-02T14:02:20.846Z,18.67
2023-05-02T14:03:24.786Z,18.65
2023-05-02T14:04:28.681Z,18.59
2023-05-02T14:05:30.987Z,18.52
2023-05-02T14:06:36.305Z,18.49
2023-05-02T14:07:40.178Z,18.56
2023-05-02T14:08:42.511Z,18.65
2023-05-02T14:09:45.015Z,18.81
2023-05-02T14:10:49.205Z,19.07
2023-05-02T14:11:51.619Z,19.26
2023-05-02T14:23:44.008Z,20.1
2023-05-02T14:37:57.349Z,20.03
2023-05-02T14:52:13.502Z,20.22
2023-05-02T15:06:21.784Z,19.92
2023-05-02T15:20:34.659Z,19.38
2023-05-02T15:34:48.631Z,18.72
2023-05-02T15:48:55.984Z,17.84
2023-05-02T16:03:07.702Z,17.43
2023-05-02T16:17:19.731Z,16.93
2023-05-02T16:31:33.574Z,16.57
2023-05-02T16:45:42.561Z,16.19
2023-05-02T16:59:54.811Z,15.82
2023-05-02T17:14:07.308Z,15.53
2023-05-02T17:28:19.101Z,15.06
2023-05-02T17:42:31.604Z,14.68
2023-05-02T17:56:43.568Z,14.23
2023-05-02T18:10:55.483Z,13.68
2023-05-02T18:25:07.320Z,12.98
2023-05-02T18:39:17.602Z,12.27
2023-05-02T18:53:28.288Z,11.64
2023-05-02T19:07:39.771Z,11.02
2023-05-02T19:21:51.250Z,10.41
2023-05-02T19:36:03.170Z,9.97
2023-05-02T19:50:15.561Z,9.57
2023-05-02T20:04:25.253Z,9.26
2023-05-02T20:18:36.476Z,9.19
2023-05-02T20:32:47.910Z,8.84
2023-05-02T21:01:10.012Z,8.87
2023-05-02T21:15:21.554Z,8.75
2023-05-02T21:29:33.061Z,8.47
2023-05-02T21:43:44.407Z,8.23
2023-05-02T21:57:54.783Z,8.15
2023-05-02T22:12:06.152Z,7.97
2023-05-02T22:26:15.142Z,7.68
2023-05-02T22:40:29.502Z,7.4
2023-05-02T22:54:36.190Z,7.14
2023-05-02T23:08:47.455Z,6.92
2023-05-02T23:22:58.913Z,6.75
2023-05-02T23:37:10.149Z,6.54
2023-05-02T23:51:21.405Z,6.36
